Terminal Aerodrome Forecast
Issued by NWS

Home | Current Version | Previous Version | Text Only | Print | Product List | Glossary On
Versions: 1 2 3 4 5 6 7 8 9 10 11 12
000
FTUS45 KREV 210550
TAFTVL
TAF
KTVL 210550Z 2106/2206 VRB02KT P6SM SKC
     FM212100 03008KT P6SM FEW050
     FM220200 VRB03KT P6SM FEW040=

USA.gov is the U.S. government's official web portal to all federal, state and local government web resources and services.